Darbhanga Airport

Jump to: basic info | weather | runways | comments

Related pages: nearby airports | nearby navaids | notams | map

Basic information (top)

Codes: VE89
Location: lon 26.192801, lat 85.916901, elev 156 ft / 48 m msl
Status: small_airport

Weather (top)

Current conditions for Lok Nayak Jayaprakash Airport 58nm (107km) SW (rec'd 2014/09/01 06:50Z):

VEPT 010650Z 09010G20KT 3000 HZ SCT015 SCT025 FEW030CB BKN100 29/25 Q1000 TEMPO 1500 TSRA

Airport forecast for Lok Nayak Jayaprakash Airport 58nm (107km) SW (rec'd 2014/08/30 12:54Z):

TAF TAF VEPT 300900Z 3012/3118 16008KT 5000 HZ SCT020 SCT025 
      BECMG 3016/3018 3000 -RA/-TSRA SCT018 FEW030CB BKN090 
      BECMG 3106/3108 5000 HZ SCT018 SCT025 
      BECMG 3116/3118 3000 -RA/-TSRA SCT018 FEW030CB BKN090

Runways (top)

10/28: 9,000 x 150 ft (2,743 x 46 m) — paved — not lighted

Latest comments (top)

Darbhanga Airport: Dear Sir, Kindly requested to Please, ... [read]

START DARBHANGA AIR PORT: I REQUESTE TO CENTRAL AND BIHAR ... [read]

Please apeel to start the airport: Dear Kindly Request PM TO Start The ... [read]

airline service: Please please start airline services ... [read]

pls: pls do start darbhanga airport [read]

See all 22 comments for Darbhanga Airport

More... (top)

See also NOTAMs and nearby airports and navaids, or visit the Darbhanga Airport page at the main OurAirports website..